Aviation Digital Data Service (ADDS)

Output produced by METARs form (0452 UTC 23 February 2017)
found at http://aviationweather.gov/adds/metars/
 
KAOO 230308Z 2303/2324 VRB02KT P6SM OVC045 
     FM231000 21003KT 4SM BR OVC025 
     FM231600 22008KT P6SM OVC035